createdAt,value
2023-01-12T00:00:20.305Z,72.61
2023-01-12T00:01:23.346Z,72.61
2023-01-12T00:02:25.335Z,72.60
2023-01-12T00:03:28.700Z,72.61
2023-01-12T00:04:33.634Z,72.38
2023-01-12T00:05:35.860Z,72.13
2023-01-12T00:06:37.933Z,72.12
2023-01-12T00:07:40.575Z,72.17
2023-01-12T00:08:42.525Z,72.29
2023-01-12T00:09:45.460Z,71.93
2023-01-12T00:10:47.646Z,72.27
2023-01-12T00:11:49.238Z,72.04
2023-01-12T00:12:50.945Z,72.13
2023-01-12T00:13:52.653Z,72.27
2023-01-12T00:14:54.752Z,72.34
2023-01-12T00:16:16.069Z,72.37
2023-01-12T00:17:19.201Z,72.51
2023-01-12T00:18:22.022Z,72.18
2023-01-12T00:19:23.973Z,72.34
2023-01-12T00:20:26.427Z,71.98
2023-01-12T00:21:29.500Z,71.92
2023-01-12T00:22:31.144Z,72.15
2023-01-12T00:23:33.354Z,72.15
2023-01-12T00:24:41.625Z,72.09
2023-01-12T00:25:43.293Z,71.96
2023-01-12T00:26:46.251Z,72.15
2023-01-12T00:27:49.564Z,72.47
2023-01-12T00:28:51.297Z,72.49
2023-01-12T00:29:53.974Z,72.34
2023-01-12T00:31:02.876Z,72.71
2023-01-12T00:32:05.446Z,72.69
2023-01-12T00:33:07.612Z,72.49
2023-01-12T00:34:15.057Z,72.57
2023-01-12T00:35:17.925Z,72.52
2023-01-12T00:36:19.665Z,72.39
2023-01-12T00:37:22.066Z,72.45
2023-01-12T00:38:25.064Z,72.55
2023-01-12T00:39:26.593Z,72.38
2023-01-12T00:40:29.430Z,71.95
2023-01-12T00:41:49.825Z,72.07
2023-01-12T00:43:10.865Z,71.79
2023-01-12T00:44:31.634Z,71.82
2023-01-12T00:45:35.940Z,71.98
2023-01-12T00:46:37.643Z,72.02
2023-01-12T00:47:39.319Z,72.39
2023-01-12T00:48:41.137Z,72.37
2023-01-12T00:49:43.707Z,72.24
2023-01-12T00:50:48.581Z,71.89
2023-01-12T00:51:50.811Z,71.63
2023-01-12T00:52:53.028Z,71.38
2023-01-12T00:53:54.938Z,71.53
2023-01-12T00:54:56.801Z,71.17
2023-01-12T00:56:05.301Z,71.07
2023-01-12T00:57:07.260Z,70.96
2023-01-12T00:58:11.117Z,70.70
2023-01-12T00:59:13.281Z,71.24
2023-01-12T01:00:17.477Z,71.00
2023-01-12T01:01:20.153Z,70.97
2023-01-12T01:02:23.991Z,70.94
2023-01-12T01:03:26.423Z,70.68
2023-01-12T01:04:28.089Z,70.53
2023-01-12T01:05:30.218Z,70.34
2023-01-12T01:06:33.761Z,70.29
2023-01-12T01:07:35.557Z,70.39
2023-01-12T01:08:37.619Z,70.06
2023-01-12T01:09:41.111Z,69.99
2023-01-12T01:10:42.907Z,70.06
2023-01-12T01:11:44.940Z,70.37
2023-01-12T01:12:49.653Z,70.16
2023-01-12T01:13:52.468Z,70.36
2023-01-12T01:14:54.933Z,70.66
2023-01-12T01:15:59.451Z,70.39
2023-01-12T01:17:02.488Z,70.51
2023-01-12T01:18:04.073Z,70.62
2023-01-12T01:19:07.028Z,70.48
2023-01-12T01:20:11.160Z,70.33
2023-01-12T01:21:13.325Z,70.08
2023-01-12T01:22:15.563Z,70.11
2023-01-12T01:23:17.758Z,69.88
2023-01-12T01:24:19.381Z,69.58
2023-01-12T01:25:21.555Z,69.38
2023-01-12T01:26:23.335Z,69.49
2023-01-12T01:27:26.930Z,69.45
2023-01-12T01:28:28.655Z,69.58
2023-01-12T01:29:31.419Z,69.00
2023-01-12T01:30:33.561Z,69.18
2023-01-12T01:31:35.708Z,69.42
2023-01-12T01:32:37.601Z,69.50
2023-01-12T01:33:39.450Z,69.25
2023-01-12T01:34:41.183Z,69.16
2023-01-12T01:35:44.124Z,68.92
2023-01-12T01:36:49.502Z,68.99
2023-01-12T01:37:51.592Z,68.77
2023-01-12T01:38:53.361Z,69.21
2023-01-12T01:39:56.309Z,68.86
2023-01-12T01:40:58.129Z,68.77
2023-01-12T01:42:01.434Z,68.32
2023-01-12T01:43:03.480Z,68.97
2023-01-12T01:44:24.220Z,68.75
2023-01-12T01:45:25.859Z,68.72
2023-01-12T01:46:47.754Z,68.58
2023-01-12T01:47:50.522Z,68.61
2023-01-12T01:48:54.236Z,68.90
2023-01-12T01:49:57.457Z,69.36
2023-01-12T01:50:59.945Z,69.24
2023-01-12T01:52:19.179Z,68.97
2023-01-12T01:53:21.874Z,68.68
2023-01-12T01:54:23.559Z,68.84
2023-01-12T01:55:27.071Z,68.84
2023-01-12T01:56:30.975Z,68.93
2023-01-12T01:58:01.720Z,68.85
2023-01-12T01:59:06.707Z,68.38
2023-01-12T02:00:08.932Z,68.36
2023-01-12T02:01:11.245Z,68.53
2023-01-12T02:02:13.706Z,68.07
2023-01-12T02:03:15.914Z,68.49
2023-01-12T02:04:18.143Z,68.74
2023-01-12T02:05:22.898Z,69.13
2023-01-12T02:06:25.908Z,69.10
2023-01-12T02:07:27.986Z,69.40
2023-01-12T02:08:44.457Z,69.24
2023-01-12T02:09:47.002Z,69.00
2023-01-12T02:10:48.921Z,68.99
2023-01-12T02:12:09.131Z,68.89
2023-01-12T02:13:29.248Z,69.17
2023-01-12T02:14:51.412Z,69.19
2023-01-12T02:16:17.113Z,69.04
2023-01-12T02:17:21.743Z,68.99
2023-01-12T02:18:42.234Z,68.90
2023-01-12T02:19:46.463Z,69.17
2023-01-12T02:21:00.150Z,68.91
2023-01-12T02:22:06.621Z,68.94
2023-01-12T02:24:41.882Z,69.18
2023-01-12T02:25:50.338Z,69.55
2023-01-12T02:27:04.277Z,69.53
2023-01-12T02:28:26.673Z,69.45
2023-01-12T02:29:35.153Z,69.34
2023-01-12T02:30:58.430Z,68.89
2023-01-12T02:32:28.568Z,69.63
2023-01-12T02:33:41.562Z,70.27
2023-01-12T02:35:13.208Z,70.28
2023-01-12T02:36:17.677Z,69.98
2023-01-12T02:37:29.504Z,69.90
2023-01-12T02:39:00.689Z,69.96
2023-01-12T02:40:16.441Z,70.17
2023-01-12T02:41:48.587Z,69.80
2023-01-12T02:42:55.143Z,70.12
2023-01-12T02:44:02.907Z,69.76
2023-01-12T02:45:19.770Z,69.87
2023-01-12T02:46:22.776Z,69.46
2023-01-12T02:47:52.932Z,69.54
2023-01-12T02:48:55.791Z,69.47
2023-01-12T02:50:01.841Z,69.30
2023-01-12T02:51:22.316Z,69.33
2023-01-12T02:52:25.793Z,69.52
2023-01-12T02:53:51.020Z,69.62
2023-01-12T02:54:54.197Z,69.71
2023-01-12T02:55:58.993Z,69.51
2023-01-12T02:57:07.975Z,69.44
2023-01-12T02:58:10.765Z,69.42
2023-01-12T02:59:16.662Z,69.59
2023-01-12T03:00:22.974Z,69.65
2023-01-12T03:01:33.914Z,69.39
2023-01-12T03:02:36.626Z,69.53
2023-01-12T03:03:42.652Z,69.32
2023-01-12T03:04:45.668Z,69.16
2023-01-12T03:05:48.029Z,69.36
2023-01-12T03:06:58.586Z,69.02
2023-01-12T03:08:11.634Z,69.11
2023-01-12T03:09:15.998Z,68.87
2023-01-12T03:10:38.415Z,69.19
2023-01-12T03:11:42.132Z,69.34
2023-01-12T03:12:44.005Z,69.35
2023-01-12T03:13:56.474Z,69.13
2023-01-12T03:15:00.530Z,69.50
2023-01-12T03:16:03.343Z,69.79
2023-01-12T03:17:07.740Z,69.94
2023-01-12T03:18:13.791Z,70.16
2023-01-12T03:19:16.478Z,70.13
2023-01-12T03:20:28.544Z,70.11
2023-01-12T03:21:35.644Z,69.95
2023-01-12T03:22:38.255Z,70.04
2023-01-12T03:23:45.121Z,70.09
2023-01-12T03:24:49.667Z,69.83
2023-01-12T03:25:52.293Z,70.03
2023-01-12T03:26:56.450Z,69.85
2023-01-12T03:27:59.806Z,69.47
2023-01-12T03:29:23.731Z,69.60
2023-01-12T03:30:37.038Z,69.18
2023-01-12T03:31:45.364Z,69.15
2023-01-12T03:32:47.399Z,69.22
2023-01-12T03:33:54.055Z,69.40
2023-01-12T03:35:00.582Z,69.66
2023-01-12T03:36:11.988Z,69.35
2023-01-12T03:37:22.397Z,69.12
2023-01-12T03:38:38.465Z,68.89
2023-01-12T03:39:52.900Z,69.31
2023-01-12T03:41:01.423Z,69.65
2023-01-12T03:42:07.149Z,69.83
2023-01-12T03:43:14.322Z,69.70
2023-01-12T03:44:19.721Z,70.01
2023-01-12T03:45:31.087Z,69.87
2023-01-12T03:46:40.968Z,69.90
2023-01-12T03:47:43.982Z,70.39
2023-01-12T03:48:48.421Z,70.33
2023-01-12T03:49:53.443Z,70.36
2023-01-12T03:51:21.494Z,70.38
2023-01-12T03:52:23.898Z,70.38
2023-01-12T03:53:28.709Z,70.43
2023-01-12T03:54:33.043Z,70.61
2023-01-12T03:55:43.987Z,70.36
2023-01-12T03:56:48.790Z,70.15
2023-01-12T03:57:51.747Z,70.06
2023-01-12T04:00:10.605Z,69.90
2023-01-12T04:01:19.283Z,69.80
2023-01-12T04:02:27.941Z,69.66
2023-01-12T04:03:34.239Z,69.62
2023-01-12T04:04:35.934Z,69.80
2023-01-12T04:05:38.130Z,69.50
2023-01-12T04:06:42.392Z,69.10
2023-01-12T04:07:45.300Z,69.10
2023-01-12T04:08:52.843Z,68.98
2023-01-12T04:10:20.537Z,68.84
2023-01-12T04:11:42.140Z,68.59
2023-01-12T04:12:44.494Z,68.92
2023-01-12T04:13:46.204Z,68.76
2023-01-12T04:14:51.781Z,68.65
2023-01-12T04:15:55.407Z,68.74
2023-01-12T04:17:06.701Z,68.93
2023-01-12T04:18:14.909Z,69.00
2023-01-12T04:19:26.239Z,68.85
2023-01-12T04:20:31.770Z,69.01
2023-01-12T04:21:52.301Z,68.74
2023-01-12T04:22:57.268Z,68.75
2023-01-12T04:24:04.899Z,69.09
2023-01-12T04:25:09.675Z,68.57
2023-01-12T04:26:17.859Z,68.71
2023-01-12T04:27:19.891Z,68.36
2023-01-12T04:28:21.776Z,68.41
2023-01-12T04:29:26.381Z,68.53
2023-01-12T04:30:30.532Z,68.58
2023-01-12T04:31:35.547Z,68.86
2023-01-12T04:32:38.970Z,68.81
2023-01-12T04:33:47.016Z,69.26
2023-01-12T04:34:51.352Z,69.65
2023-01-12T04:35:54.731Z,69.90
2023-01-12T04:36:57.200Z,69.92
2023-01-12T04:37:58.910Z,70.23
2023-01-12T04:39:04.296Z,70.11
2023-01-12T04:40:11.107Z,69.90
2023-01-12T04:41:12.891Z,69.66
2023-01-12T04:42:36.007Z,69.60
2023-01-12T04:43:38.024Z,69.24
2023-01-12T04:44:44.665Z,69.18
2023-01-12T04:45:49.592Z,69.47
2023-01-12T04:46:53.172Z,69.48
2023-01-12T04:48:06.337Z,69.59
2023-01-12T04:49:11.465Z,69.75
2023-01-12T04:50:14.073Z,70.01
2023-01-12T04:51:16.392Z,69.75
2023-01-12T04:52:18.469Z,69.69
2023-01-12T04:53:32.259Z,69.87
2023-01-12T04:54:36.506Z,69.72
2023-01-12T04:55:40.714Z,69.35
2023-01-12T04:56:44.847Z,69.36
2023-01-12T04:57:47.320Z,69.15
2023-01-12T04:58:51.323Z,69.38
2023-01-12T04:59:56.239Z,69.16
2023-01-12T05:00:59.421Z,69.13
2023-01-12T05:02:01.224Z,69.17
2023-01-12T05:03:04.515Z,68.70
2023-01-12T05:04:11.512Z,68.76
2023-01-12T05:05:18.811Z,68.89
2023-01-12T05:08:01.795Z,68.85
2023-01-12T05:09:23.322Z,69.28
2023-01-12T05:10:36.662Z,69.41
2023-01-12T05:11:44.882Z,69.61
2023-01-12T05:12:50.692Z,69.51
2023-01-12T05:15:11.931Z,69.14
2023-01-12T05:16:21.009Z,68.89
2023-01-12T05:17:23.984Z,69.31
2023-01-12T05:18:25.868Z,68.97
2023-01-12T05:19:28.624Z,69.12
2023-01-12T05:20:30.641Z,69.32
2023-01-12T05:21:32.534Z,69.37
2023-01-12T05:22:34.515Z,69.03
2023-01-12T05:23:44.279Z,69.09
2023-01-12T05:27:42.507Z,69.56
2023-01-12T05:28:47.892Z,69.49
2023-01-12T05:31:09.627Z,69.24
2023-01-12T05:32:12.825Z,69.16
2023-01-12T05:33:18.800Z,69.23
2023-01-12T05:34:22.659Z,68.94
2023-01-12T05:35:24.733Z,68.80
2023-01-12T05:36:29.020Z,68.79
2023-01-12T05:37:34.356Z,68.72
2023-01-12T05:38:37.858Z,68.74
2023-01-12T05:39:41.923Z,68.89
2023-01-12T05:40:45.079Z,69.03
2023-01-12T05:42:11.237Z,69.26
2023-01-12T05:43:33.819Z,69.71
2023-01-12T05:44:37.451Z,69.57
2023-01-12T05:45:39.369Z,69.35
2023-01-12T05:46:43.749Z,69.34
2023-01-12T05:47:46.719Z,69.38
2023-01-12T05:48:50.220Z,69.10
2023-01-12T05:49:55.293Z,69.09
2023-01-12T05:51:01.800Z,68.97
2023-01-12T05:52:03.561Z,69.04
2023-01-12T05:53:05.338Z,69.08
2023-01-12T05:54:07.660Z,68.91
2023-01-12T05:55:11.307Z,69.62
2023-01-12T05:56:19.340Z,69.42
2023-01-12T05:57:21.382Z,69.97
2023-01-12T05:58:23.600Z,70.15
2023-01-12T05:59:25.701Z,69.83
2023-01-12T06:00:28.108Z,69.90
2023-01-12T06:01:30.259Z,69.67
2023-01-12T06:02:32.662Z,69.67
2023-01-12T06:03:35.619Z,69.42
2023-01-12T06:04:37.419Z,69.41
2023-01-12T06:05:38.992Z,69.24
2023-01-12T06:06:41.111Z,69.40
2023-01-12T06:07:43.208Z,69.46
2023-01-12T06:08:45.740Z,69.41
2023-01-12T06:09:47.575Z,69.14
2023-01-12T06:10:49.780Z,69.09
2023-01-12T06:12:10.166Z,69.03
2023-01-12T06:13:32.611Z,68.94
2023-01-12T06:14:35.580Z,69.29
2023-01-12T06:15:37.381Z,69.03
2023-01-12T06:16:39.557Z,69.11
2023-01-12T06:17:41.244Z,69.09
2023-01-12T06:18:42.974Z,69.12
2023-01-12T06:19:44.651Z,69.05
2023-01-12T06:20:47.550Z,69.36
2023-01-12T06:21:49.683Z,69.09
2023-01-12T06:22:51.961Z,69.34
2023-01-12T06:23:53.997Z,69.41
2023-01-12T06:24:55.688Z,69.32
2023-01-12T06:26:00.424Z,69.20
2023-01-12T06:27:04.295Z,69.31
2023-01-12T06:28:07.150Z,69.14
2023-01-12T06:29:09.270Z,68.97
2023-01-12T06:30:11.311Z,69.12
2023-01-12T06:31:13.080Z,68.85
2023-01-12T06:32:15.233Z,68.78
2023-01-12T06:33:17.386Z,68.67
2023-01-12T06:34:20.531Z,68.79
2023-01-12T06:35:22.293Z,68.80
2023-01-12T06:36:24.660Z,68.85
2023-01-12T06:37:26.707Z,68.90
2023-01-12T06:38:29.046Z,69.24
2023-01-12T06:39:30.963Z,69.17
2023-01-12T06:40:33.148Z,69.07
2023-01-12T06:41:54.782Z,69.18
2023-01-12T06:42:57.443Z,69.42
2023-01-12T06:43:59.420Z,69.69
2023-01-12T06:45:03.868Z,69.79
2023-01-12T06:46:05.863Z,69.62
2023-01-12T06:47:07.956Z,69.55
2023-01-12T06:48:10.211Z,69.51
2023-01-12T06:49:12.509Z,69.81
2023-01-12T06:50:14.712Z,69.92
2023-01-12T06:51:16.273Z,70.15
2023-01-12T06:52:19.778Z,70.16
2023-01-12T06:53:21.829Z,69.83
2023-01-12T06:54:23.438Z,69.98
2023-01-12T06:55:25.456Z,69.83
2023-01-12T06:56:27.679Z,69.85
2023-01-12T06:57:29.624Z,69.83
2023-01-12T06:58:31.921Z,70.06
2023-01-12T06:59:34.834Z,69.65
2023-01-12T07:00:37.767Z,69.68
2023-01-12T07:01:40.630Z,69.66
2023-01-12T07:02:42.482Z,69.55
2023-01-12T07:03:44.705Z,69.68
2023-01-12T07:04:47.075Z,69.49
2023-01-12T07:05:50.983Z,69.83
2023-01-12T07:06:55.505Z,69.88
2023-01-12T07:07:59.114Z,70.16
2023-01-12T07:09:01.272Z,69.90
2023-01-12T07:10:03.437Z,70.28
2023-01-12T07:11:08.054Z,70.32
2023-01-12T07:12:10.267Z,70.31
2023-01-12T07:13:12.436Z,70.60
2023-01-12T07:14:14.773Z,70.91
2023-01-12T07:15:17.179Z,70.76
2023-01-12T07:16:19.340Z,70.63
2023-01-12T07:17:21.584Z,70.44
2023-01-12T07:18:23.666Z,70.43
2023-01-12T07:19:25.392Z,70.56
2023-01-12T07:20:28.806Z,70.15
2023-01-12T07:21:33.045Z,70.20
2023-01-12T07:22:36.621Z,69.92
2023-01-12T07:23:42.396Z,69.90
2023-01-12T07:24:44.068Z,69.71
2023-01-12T07:25:45.797Z,69.52
2023-01-12T07:26:50.419Z,69.58
2023-01-12T07:27:52.949Z,70.02
2023-01-12T07:28:56.751Z,70.15
2023-01-12T07:30:00.224Z,70.53
2023-01-12T07:31:03.638Z,70.48
2023-01-12T07:32:05.781Z,70.53
2023-01-12T07:33:08.269Z,70.49
2023-01-12T07:34:10.956Z,70.60
2023-01-12T07:35:13.010Z,70.38
2023-01-12T07:36:14.797Z,70.49
2023-01-12T07:37:17.077Z,70.71
2023-01-12T07:38:18.726Z,70.53
2023-01-12T07:39:21.320Z,70.35
2023-01-12T07:40:23.722Z,70.61
2023-01-12T07:41:43.877Z,70.48
2023-01-12T07:42:47.742Z,71.10
2023-01-12T07:43:50.410Z,71.52
2023-01-12T07:44:52.193Z,71.95
2023-01-12T07:45:57.174Z,72.01
2023-01-12T07:47:00.154Z,72.01
2023-01-12T07:48:02.687Z,71.43
2023-01-12T07:49:11.621Z,71.53
2023-01-12T07:50:13.261Z,71.50
2023-01-12T07:51:15.341Z,72.39
2023-01-12T07:52:17.366Z,72.58
2023-01-12T07:53:19.469Z,72.60
2023-01-12T07:54:21.581Z,72.77
2023-01-12T07:55:23.825Z,72.51
2023-01-12T07:56:27.315Z,72.89
2023-01-12T07:57:29.823Z,73.03
2023-01-12T07:58:32.171Z,73.00
2023-01-12T07:59:35.361Z,73.51
2023-01-12T08:00:38.254Z,73.57
2023-01-12T08:01:41.347Z,73.90
2023-01-12T08:02:43.538Z,73.77
2023-01-12T08:03:45.418Z,73.38
2023-01-12T08:04:47.688Z,73.69
2023-01-12T08:05:49.920Z,73.68
2023-01-12T08:06:51.633Z,73.80
2023-01-12T08:07:53.782Z,73.64
2023-01-12T08:08:55.698Z,73.37
2023-01-12T08:09:57.374Z,73.49
2023-01-12T08:11:05.479Z,73.40
2023-01-12T08:12:08.731Z,73.48
2023-01-12T08:13:10.486Z,73.37
2023-01-12T08:14:13.209Z,73.31
2023-01-12T08:15:17.928Z,73.31
2023-01-12T08:16:21.106Z,73.25
2023-01-12T08:17:26.869Z,73.41
2023-01-12T08:18:30.247Z,73.14
2023-01-12T08:19:55.260Z,72.93
2023-01-12T08:20:57.752Z,72.96
2023-01-12T08:22:00.188Z,73.09
2023-01-12T08:23:04.159Z,73.01
2023-01-12T08:24:06.963Z,73.05
2023-01-12T08:25:15.738Z,72.98
2023-01-12T08:26:18.973Z,72.89
2023-01-12T08:27:22.646Z,73.07
2023-01-12T08:28:27.426Z,72.98
2023-01-12T08:29:34.088Z,73.08
2023-01-12T08:30:36.441Z,72.97
2023-01-12T08:31:38.025Z,72.90
2023-01-12T08:32:39.567Z,72.86
2023-01-12T08:33:41.666Z,72.98
2023-01-12T08:34:44.780Z,72.73
2023-01-12T08:35:46.890Z,73.10
2023-01-12T08:36:48.783Z,72.99
2023-01-12T08:37:50.602Z,72.89
2023-01-12T08:38:52.678Z,72.64
2023-01-12T08:39:54.741Z,72.67
2023-01-12T08:41:15.753Z,73.03
2023-01-12T08:42:19.546Z,73.05
2023-01-12T08:43:41.810Z,73.20
2023-01-12T08:44:43.524Z,72.76
2023-01-12T08:45:45.514Z,72.78
2023-01-12T08:46:50.713Z,73.02
2023-01-12T08:47:53.537Z,72.81
2023-01-12T08:48:55.709Z,72.88
2023-01-12T08:49:57.996Z,73.21
2023-01-12T08:51:00.170Z,73.31
2023-01-12T08:52:02.117Z,73.23
2023-01-12T08:53:04.543Z,72.95
2023-01-12T08:54:06.938Z,73.08
2023-01-12T08:55:11.262Z,72.81
2023-01-12T08:56:13.244Z,72.57
2023-01-12T08:57:16.410Z,72.38
2023-01-12T08:58:18.556Z,72.45
2023-01-12T08:59:20.940Z,72.51
2023-01-12T09:00:22.928Z,72.55
2023-01-12T09:01:24.524Z,72.43
2023-01-12T09:02:27.576Z,72.66
2023-01-12T09:03:29.368Z,72.47
2023-01-12T09:04:31.058Z,72.54
2023-01-12T09:05:33.545Z,72.65
2023-01-12T09:06:39.579Z,72.75
2023-01-12T09:07:43.268Z,73.19
2023-01-12T09:08:45.431Z,73.41
2023-01-12T09:09:47.226Z,73.48
2023-01-12T09:10:49.233Z,73.40
2023-01-12T09:11:51.653Z,73.45
2023-01-12T09:12:54.613Z,73.33
2023-01-12T09:13:58.759Z,73.58
2023-01-12T09:15:02.056Z,73.10
2023-01-12T09:16:12.352Z,72.78
2023-01-12T09:17:15.927Z,72.72
2023-01-12T09:18:19.686Z,72.43
2023-01-12T09:19:22.343Z,72.44
2023-01-12T09:20:24.619Z,72.75
2023-01-12T09:21:27.196Z,72.87
2023-01-12T09:22:29.817Z,72.83
2023-01-12T09:23:31.979Z,72.82
2023-01-12T09:24:34.521Z,72.94
2023-01-12T09:25:37.493Z,73.09
2023-01-12T09:26:45.562Z,72.86
2023-01-12T09:27:47.591Z,72.63
2023-01-12T09:28:49.280Z,72.68
2023-01-12T09:29:52.041Z,73.18
2023-01-12T09:30:54.184Z,72.77
2023-01-12T09:31:58.060Z,72.69
2023-01-12T09:33:00.683Z,72.61
2023-01-12T09:34:03.380Z,72.96
2023-01-12T09:35:06.843Z,72.83
2023-01-12T09:36:09.617Z,73.04
2023-01-12T09:37:13.369Z,73.08
2023-01-12T09:38:16.064Z,72.55
2023-01-12T09:39:27.477Z,72.86
2023-01-12T09:40:30.450Z,72.83
2023-01-12T09:41:53.509Z,72.66
2023-01-12T09:43:14.308Z,72.81
2023-01-12T09:44:48.186Z,72.68
2023-01-12T09:46:08.643Z,73.30
2023-01-12T09:47:16.302Z,73.05
2023-01-12T09:48:21.604Z,72.77
2023-01-12T09:49:25.268Z,73.24
2023-01-12T09:50:28.480Z,73.35
2023-01-12T09:51:36.483Z,72.97
2023-01-12T09:52:40.177Z,72.66
2023-01-12T09:53:42.369Z,72.75
2023-01-12T09:54:44.670Z,72.71
2023-01-12T09:56:04.617Z,72.69
2023-01-12T09:57:29.207Z,72.72
2023-01-12T09:58:52.084Z,72.68
2023-01-12T09:59:58.132Z,72.98
2023-01-12T10:01:02.859Z,73.25
2023-01-12T10:02:04.633Z,73.49
2023-01-12T10:03:24.863Z,73.28
2023-01-12T10:04:27.204Z,73.17
2023-01-12T10:05:39.612Z,73.37
2023-01-12T10:06:42.579Z,73.01
2023-01-12T10:07:45.645Z,73.07
2023-01-12T10:08:51.360Z,72.90
2023-01-12T10:09:53.031Z,72.83
2023-01-12T10:10:57.721Z,72.66
2023-01-12T10:12:14.527Z,72.90
2023-01-12T10:13:16.625Z,72.96
2023-01-12T10:14:21.253Z,72.46
2023-01-12T10:15:37.686Z,72.64
2023-01-12T10:16:45.360Z,73.06
2023-01-12T10:17:51.620Z,73.11
2023-01-12T10:18:54.815Z,73.00
2023-01-12T10:20:07.315Z,72.92
2023-01-12T10:21:09.475Z,72.81
2023-01-12T10:22:38.902Z,73.12
2023-01-12T10:23:40.700Z,73.04
2023-01-12T10:24:43.193Z,72.88
2023-01-12T10:25:48.399Z,72.86
2023-01-12T10:26:51.907Z,72.43
2023-01-12T10:27:54.615Z,72.44
2023-01-12T10:28:56.838Z,72.51
2023-01-12T10:30:01.369Z,72.16
2023-01-12T10:31:03.223Z,71.93
2023-01-12T10:32:05.897Z,71.87
2023-01-12T10:33:12.593Z,72.18
2023-01-12T10:34:16.086Z,71.97
2023-01-12T10:35:19.889Z,72.21
2023-01-12T10:36:21.571Z,72.26
2023-01-12T10:37:23.670Z,71.75
2023-01-12T10:38:29.606Z,71.95
2023-01-12T10:39:32.462Z,71.92
2023-01-12T10:40:35.245Z,72.28
2023-01-12T10:41:40.359Z,72.17
2023-01-12T10:43:02.367Z,72.31
2023-01-12T10:44:11.537Z,72.40
2023-01-12T10:45:19.376Z,72.25
2023-01-12T10:46:22.553Z,71.98
2023-01-12T10:47:26.481Z,71.73
2023-01-12T10:48:28.473Z,72.17
2023-01-12T10:49:30.629Z,72.07
2023-01-12T10:50:33.970Z,72.11
2023-01-12T10:51:36.110Z,72.39
2023-01-12T10:52:38.945Z,72.55
2023-01-12T10:53:50.941Z,72.40
2023-01-12T10:54:55.572Z,72.55
2023-01-12T10:55:58.234Z,72.76
2023-01-12T10:57:20.461Z,72.87
2023-01-12T10:58:29.436Z,72.83
2023-01-12T10:59:35.125Z,72.80
2023-01-12T11:00:37.154Z,72.54
2023-01-12T11:01:49.795Z,72.55
2023-01-12T11:02:51.641Z,72.80
2023-01-12T11:03:55.332Z,72.80
2023-01-12T11:04:58.254Z,72.86
2023-01-12T11:06:18.700Z,72.54
2023-01-12T11:07:22.039Z,72.51
2023-01-12T11:08:25.317Z,72.60
2023-01-12T11:09:28.149Z,72.80
2023-01-12T11:10:33.274Z,73.13
2023-01-12T11:11:35.095Z,73.20
2023-01-12T11:12:38.483Z,73.17
2023-01-12T11:13:40.203Z,73.12
2023-01-12T11:14:42.208Z,72.81
2023-01-12T11:15:53.754Z,73.10
2023-01-12T11:16:55.433Z,73.26
2023-01-12T11:17:57.231Z,73.60
2023-01-12T11:19:02.456Z,73.58
2023-01-12T11:20:04.980Z,73.54
2023-01-12T11:21:15.217Z,73.23
2023-01-12T11:22:21.152Z,73.31
2023-01-12T11:23:25.693Z,73.69
2023-01-12T11:24:34.433Z,73.69
2023-01-12T11:25:40.390Z,73.77
2023-01-12T11:26:42.337Z,73.59
2023-01-12T11:27:44.010Z,73.53
2023-01-12T11:28:47.417Z,73.83
2023-01-12T11:30:00.028Z,73.82
2023-01-12T11:31:11.038Z,74.02
2023-01-12T11:32:33.824Z,74.37
2023-01-12T11:33:35.412Z,74.05
2023-01-12T11:34:39.110Z,74.35
2023-01-12T11:35:41.899Z,74.63
2023-01-12T11:36:44.919Z,74.73
2023-01-12T11:37:47.080Z,74.75
2023-01-12T11:38:50.420Z,75.13
2023-01-12T11:39:54.239Z,75.06
2023-01-12T11:40:56.387Z,75.05
2023-01-12T11:42:17.452Z,75.16
2023-01-12T11:43:46.570Z,75.29
2023-01-12T11:45:02.303Z,75.22
2023-01-12T11:46:25.219Z,75.26
2023-01-12T11:47:28.349Z,75.26
2023-01-12T11:48:36.366Z,74.84
2023-01-12T11:49:57.212Z,74.68
2023-01-12T11:50:58.993Z,74.55
2023-01-12T11:52:02.444Z,74.36
2023-01-12T11:53:07.334Z,74.47
2023-01-12T11:54:16.787Z,74.04
2023-01-12T11:55:22.014Z,74.18
2023-01-12T11:56:32.598Z,74.18
2023-01-12T11:57:53.224Z,74.30
2023-01-12T11:59:18.772Z,74.04
2023-01-12T12:00:39.325Z,73.73
2023-01-12T12:01:59.944Z,73.82
2023-01-12T12:03:05.720Z,73.86
2023-01-12T12:04:27.712Z,74.02
2023-01-12T12:05:43.141Z,73.95
2023-01-12T12:07:01.784Z,73.85
2023-01-12T12:08:29.951Z,73.71
2023-01-12T12:09:34.412Z,74.13
2023-01-12T12:10:35.951Z,73.99
2023-01-12T12:11:43.357Z,73.78
2023-01-12T12:12:48.455Z,74.12
2023-01-12T12:14:00.282Z,74.27
2023-01-12T12:15:01.948Z,74.33
2023-01-12T12:16:24.117Z,73.73
2023-01-12T12:17:28.589Z,73.93
2023-01-12T12:18:32.354Z,74.05
2023-01-12T12:19:54.249Z,73.86
2023-01-12T12:21:22.474Z,74.20
2023-01-12T12:22:27.578Z,73.67
2023-01-12T12:23:29.150Z,73.63
2023-01-12T12:24:31.782Z,73.55
2023-01-12T12:25:42.355Z,72.92
2023-01-12T12:26:45.007Z,73.12
2023-01-12T12:27:49.916Z,73.09
2023-01-12T12:29:09.807Z,73.31
2023-01-12T12:30:18.285Z,73.11
2023-01-12T12:31:21.291Z,73.10
2023-01-12T12:32:41.886Z,72.93
2023-01-12T12:33:46.376Z,73.09
2023-01-12T12:34:55.137Z,72.92
2023-01-12T12:36:31.693Z,73.13
2023-01-12T12:37:36.158Z,72.86
2023-01-12T12:38:38.562Z,72.91
2023-01-12T12:39:40.092Z,73.55
2023-01-12T12:41:42.694Z,73.41
2023-01-12T12:43:04.211Z,73.32
2023-01-12T12:44:39.765Z,73.49
2023-01-12T12:45:59.832Z,73.75
2023-01-12T12:47:08.089Z,73.60
2023-01-12T12:48:20.620Z,73.81
2023-01-12T12:49:23.841Z,73.98
2023-01-12T12:50:27.911Z,73.73
2023-01-12T12:51:30.263Z,73.76
2023-01-12T12:52:36.105Z,73.30
2023-01-12T12:53:40.832Z,73.33
2023-01-12T12:54:44.041Z,73.08
2023-01-12T12:55:47.135Z,72.83
2023-01-12T12:56:49.052Z,73.06
2023-01-12T12:58:04.486Z,72.78
2023-01-12T12:59:07.355Z,72.97
2023-01-12T13:00:26.795Z,72.65
2023-01-12T13:01:28.601Z,72.86
2023-01-12T13:02:30.486Z,72.49
2023-01-12T13:03:41.032Z,72.51
2023-01-12T13:04:42.657Z,72.59
2023-01-12T13:05:48.247Z,72.87
2023-01-12T13:06:50.458Z,73.00
2023-01-12T13:07:52.667Z,73.05
2023-01-12T13:08:55.432Z,73.25
2023-01-12T13:10:03.180Z,72.86
2023-01-12T13:11:05.985Z,72.81
2023-01-12T13:12:07.754Z,72.98
2023-01-12T13:13:23.029Z,73.32
2023-01-12T13:14:30.651Z,73.10
2023-01-12T13:15:37.362Z,72.52
2023-01-12T13:16:39.206Z,72.86
2023-01-12T13:17:43.845Z,72.96
2023-01-12T13:18:53.337Z,72.99
2023-01-12T13:20:16.819Z,72.61
2023-01-12T13:21:32.897Z,72.42
2023-01-12T13:22:48.186Z,72.66
2023-01-12T13:23:51.740Z,72.96
2023-01-12T13:24:54.225Z,73.07
2023-01-12T13:25:57.417Z,72.62
2023-01-12T13:27:01.949Z,72.73
2023-01-12T13:28:04.813Z,72.85
2023-01-12T13:29:27.518Z,72.70
2023-01-12T13:30:30.949Z,72.60
2023-01-12T13:31:34.068Z,72.88
2023-01-12T13:32:36.765Z,72.78
2023-01-12T13:33:38.630Z,72.87
2023-01-12T13:34:46.623Z,72.83
2023-01-12T13:35:48.226Z,72.86
2023-01-12T13:37:09.164Z,72.99
2023-01-12T13:38:20.221Z,72.79
2023-01-12T13:39:22.065Z,73.06
2023-01-12T13:40:28.873Z,72.85
2023-01-12T13:41:52.737Z,72.64
2023-01-12T13:43:16.553Z,73.11
2023-01-12T13:44:24.798Z,73.03
2023-01-12T13:45:26.674Z,72.86
2023-01-12T13:46:32.578Z,72.59
2023-01-12T13:47:34.769Z,72.94
2023-01-12T13:48:36.662Z,72.78
2023-01-12T13:49:44.125Z,72.67
2023-01-12T13:51:07.614Z,72.61
2023-01-12T13:52:41.556Z,72.51
2023-01-12T13:53:43.886Z,72.42
2023-01-12T13:54:48.833Z,71.88
2023-01-12T13:56:00.466Z,71.87
2023-01-12T13:57:10.474Z,72.01
2023-01-12T13:58:16.635Z,72.22
2023-01-12T13:59:18.881Z,71.95
2023-01-12T14:00:22.257Z,72.15
2023-01-12T14:01:26.914Z,72.49
2023-01-12T14:02:29.336Z,72.59
2023-01-12T14:03:46.131Z,72.61
2023-01-12T14:04:51.402Z,72.63
2023-01-12T14:06:13.363Z,72.17
2023-01-12T14:07:33.593Z,71.84
2023-01-12T14:08:46.290Z,72.13
2023-01-12T14:10:16.213Z,71.84
2023-01-12T14:11:51.854Z,71.40
2023-01-12T14:13:12.447Z,71.68
2023-01-12T14:14:53.194Z,71.76
2023-01-12T14:16:19.961Z,71.75
2023-01-12T14:17:47.028Z,71.62
2023-01-12T14:18:49.047Z,71.59
2023-01-12T14:19:51.917Z,71.42
2023-01-12T14:20:56.949Z,71.75
2023-01-12T14:22:00.698Z,71.77
2023-01-12T14:23:18.878Z,71.56
2023-01-12T14:24:21.009Z,71.68
2023-01-12T14:25:25.593Z,71.76
2023-01-12T14:26:27.445Z,72.02